sensor_id;sensor_type;location;lat;lon;timestamp;temperature;humidity
10828;DHT22;5467;59.334;13.512;2023-04-15T00:00:19;4.20;99.90
10828;DHT22;5467;59.334;13.512;2023-04-15T00:02:46;4.20;99.90
10828;DHT22;5467;59.334;13.512;2023-04-15T00:05:15;4.10;99.90
10828;DHT22;5467;59.334;13.512;2023-04-15T00:07:42;3.40;99.90
10828;DHT22;5467;59.334;13.512;2023-04-15T00:10:10;4.20;99.90
10828;DHT22;5467;59.334;13.512;2023-04-15T00:12:37;4.10;99.90
10828;DHT22;5467;59.334;13.512;2023-04-15T00:15:05;4.10;99.90
10828;DHT22;5467;59.334;13.512;2023-04-15T00:17:33;4.10;99.90
10828;DHT22;5467;59.334;13.512;2023-04-15T00:20:00;4.20;99.90
10828;DHT22;5467;59.334;13.512;2023-04-15T00:22:30;4.10;99.90
10828;DHT22;5467;59.334;13.512;2023-04-15T00:24:57;4.10;99.90
10828;DHT22;5467;59.334;13.512;2023-04-15T00:27:24;4.10;99.90
10828;DHT22;5467;59.334;13.512;2023-04-15T00:29:51;4.20;99.90
10828;DHT22;5467;59.334;13.512;2023-04-15T00:32:18;4.10;99.90
10828;DHT22;5467;59.334;13.512;2023-04-15T00:34:46;4.10;99.90
10828;DHT22;5467;59.334;13.512;2023-04-15T00:37:14;4.10;99.90
10828;DHT22;5467;59.334;13.512;2023-04-15T00:39:43;4.10;99.90
10828;DHT22;5467;59.334;13.512;2023-04-15T00:42:10;4.20;99.90
10828;DHT22;5467;59.334;13.512;2023-04-15T00:44:37;4.20;99.90
10828;DHT22;5467;59.334;13.512;2023-04-15T00:47:05;4.10;99.90
10828;DHT22;5467;59.334;13.512;2023-04-15T00:49:32;4.10;99.90
10828;DHT22;5467;59.334;13.512;2023-04-15T00:51:59;4.20;99.90
10828;DHT22;5467;59.334;13.512;2023-04-15T00:54:26;4.20;99.90
10828;DHT22;5467;59.334;13.512;2023-04-15T00:56:55;4.20;99.90
10828;DHT22;5467;59.334;13.512;2023-04-15T00:59:22;4.20;99.90
10828;DHT22;5467;59.334;13.512;2023-04-15T01:01:50;4.20;99.90
10828;DHT22;5467;59.334;13.512;2023-04-15T01:04:17;4.20;99.90
10828;DHT22;5467;59.334;13.512;2023-04-15T01:06:44;4.20;99.90
10828;DHT22;5467;59.334;13.512;2023-04-15T01:09:11;4.20;99.90
10828;DHT22;5467;59.334;13.512;2023-04-15T01:11:39;4.20;99.90
10828;DHT22;5467;59.334;13.512;2023-04-15T01:14:08;4.30;99.90
10828;DHT22;5467;59.334;13.512;2023-04-15T01:19:04;4.20;99.90
10828;DHT22;5467;59.334;13.512;2023-04-15T01:21:32;4.20;99.90
10828;DHT22;5467;59.334;13.512;2023-04-15T01:24:01;4.20;99.90
10828;DHT22;5467;59.334;13.512;2023-04-15T01:26:33;4.20;99.90
10828;DHT22;5467;59.334;13.512;2023-04-15T01:29:00;4.20;99.90
10828;DHT22;5467;59.334;13.512;2023-04-15T01:31:27;4.20;99.90
10828;DHT22;5467;59.334;13.512;2023-04-15T01:33:54;4.20;99.90
10828;DHT22;5467;59.334;13.512;2023-04-15T01:36:21;4.20;99.90
10828;DHT22;5467;59.334;13.512;2023-04-15T01:38:48;4.20;99.90
10828;DHT22;5467;59.334;13.512;2023-04-15T01:41:20;4.20;99.90
10828;DHT22;5467;59.334;13.512;2023-04-15T01:43:50;4.20;99.90
10828;DHT22;5467;59.334;13.512;2023-04-15T01:46:17;4.20;99.90
10828;DHT22;5467;59.334;13.512;2023-04-15T01:48:44;4.20;99.90
10828;DHT22;5467;59.334;13.512;2023-04-15T01:51:11;4.20;99.90
10828;DHT22;5467;59.334;13.512;2023-04-15T01:53:39;4.20;99.90
10828;DHT22;5467;59.334;13.512;2023-04-15T01:56:06;4.20;99.90
10828;DHT22;5467;59.334;13.512;2023-04-15T01:58:34;4.20;99.90
10828;DHT22;5467;59.334;13.512;2023-04-15T02:01:02;4.20;99.90
10828;DHT22;5467;59.334;13.512;2023-04-15T02:03:29;4.30;99.90
10828;DHT22;5467;59.334;13.512;2023-04-15T02:05:56;4.30;99.90
10828;DHT22;5467;59.334;13.512;2023-04-15T02:08:24;4.30;99.90
10828;DHT22;5467;59.334;13.512;2023-04-15T02:10:51;4.30;99.90
10828;DHT22;5467;59.334;13.512;2023-04-15T02:13:18;4.40;99.90
10828;DHT22;5467;59.334;13.512;2023-04-15T02:15:48;4.40;99.90
10828;DHT22;5467;59.334;13.512;2023-04-15T02:18:18;4.50;99.90
10828;DHT22;5467;59.334;13.512;2023-04-15T02:20:46;4.50;99.90
10828;DHT22;5467;59.334;13.512;2023-04-15T02:23:13;4.50;99.90
10828;DHT22;5467;59.334;13.512;2023-04-15T02:25:40;4.40;99.90
10828;DHT22;5467;59.334;13.512;2023-04-15T02:28:07;4.30;99.90
10828;DHT22;5467;59.334;13.512;2023-04-15T02:30:34;4.40;99.90
10828;DHT22;5467;59.334;13.512;2023-04-15T02:33:02;4.30;99.90
10828;DHT22;5467;59.334;13.512;2023-04-15T02:35:31;4.40;99.90
10828;DHT22;5467;59.334;13.512;2023-04-15T02:37:58;4.30;99.90
10828;DHT22;5467;59.334;13.512;2023-04-15T02:40:25;4.30;99.90
10828;DHT22;5467;59.334;13.512;2023-04-15T02:42:52;4.30;99.90
10828;DHT22;5467;59.334;13.512;2023-04-15T02:45:20;4.20;99.90
10828;DHT22;5467;59.334;13.512;2023-04-15T02:47:50;4.30;99.90
10828;DHT22;5467;59.334;13.512;2023-04-15T02:50:17;4.20;99.90
10828;DHT22;5467;59.334;13.512;2023-04-15T02:52:46;4.20;99.90
10828;DHT22;5467;59.334;13.512;2023-04-15T02:55:13;4.20;99.90
10828;DHT22;5467;59.334;13.512;2023-04-15T02:57:40;4.20;99.90
10828;DHT22;5467;59.334;13.512;2023-04-15T03:00:08;4.20;99.90
10828;DHT22;5467;59.334;13.512;2023-04-15T03:02:36;4.20;99.90
10828;DHT22;5467;59.334;13.512;2023-04-15T03:05:05;4.20;99.90
10828;DHT22;5467;59.334;13.512;2023-04-15T03:07:32;4.20;99.90
10828;DHT22;5467;59.334;13.512;2023-04-15T03:10:00;4.20;99.90
10828;DHT22;5467;59.334;13.512;2023-04-15T03:12:28;4.20;99.90
10828;DHT22;5467;59.334;13.512;2023-04-15T03:14:55;4.20;99.90
10828;DHT22;5467;59.334;13.512;2023-04-15T03:17:22;4.10;99.90
10828;DHT22;5467;59.334;13.512;2023-04-15T03:19:49;4.20;99.90
10828;DHT22;5467;59.334;13.512;2023-04-15T03:22:16;4.20;99.90
10828;DHT22;5467;59.334;13.512;2023-04-15T03:24:44;4.20;99.90
10828;DHT22;5467;59.334;13.512;2023-04-15T03:27:12;4.30;99.90
10828;DHT22;5467;59.334;13.512;2023-04-15T03:29:40;4.30;99.90
10828;DHT22;5467;59.334;13.512;2023-04-15T03:32:07;4.30;99.90
10828;DHT22;5467;59.334;13.512;2023-04-15T03:34:34;4.30;99.90
10828;DHT22;5467;59.334;13.512;2023-04-15T03:37:01;4.20;99.90
10828;DHT22;5467;59.334;13.512;2023-04-15T03:39:28;4.20;99.90
10828;DHT22;5467;59.334;13.512;2023-04-15T03:41:56;4.20;99.90
10828;DHT22;5467;59.334;13.512;2023-04-15T03:44:25;4.20;99.90
10828;DHT22;5467;59.334;13.512;2023-04-15T03:46:53;4.20;99.90
10828;DHT22;5467;59.334;13.512;2023-04-15T03:49:20;4.20;99.90
10828;DHT22;5467;59.334;13.512;2023-04-15T03:51:47;4.20;99.90
10828;DHT22;5467;59.334;13.512;2023-04-15T03:54:15;4.20;99.90
10828;DHT22;5467;59.334;13.512;2023-04-15T03:56:42;4.30;99.90
10828;DHT22;5467;59.334;13.512;2023-04-15T03:59:10;4.30;99.90
10828;DHT22;5467;59.334;13.512;2023-04-15T04:01:39;4.20;99.90
10828;DHT22;5467;59.334;13.512;2023-04-15T04:04:06;4.20;99.90
10828;DHT22;5467;59.334;13.512;2023-04-15T04:06:33;4.20;99.90
10828;DHT22;5467;59.334;13.512;2023-04-15T04:09:00;4.10;99.90
10828;DHT22;5467;59.334;13.512;2023-04-15T04:11:30;4.10;99.90
10828;DHT22;5467;59.334;13.512;2023-04-15T04:13:57;4.10;99.90
10828;DHT22;5467;59.334;13.512;2023-04-15T04:16:25;4.20;99.90
10828;DHT22;5467;59.334;13.512;2023-04-15T04:18:53;4.10;99.90
10828;DHT22;5467;59.334;13.512;2023-04-15T04:21:21;4.20;99.90
10828;DHT22;5467;59.334;13.512;2023-04-15T04:23:48;4.20;99.90
10828;DHT22;5467;59.334;13.512;2023-04-15T04:26:15;4.20;99.90
10828;DHT22;5467;59.334;13.512;2023-04-15T04:28:43;4.20;99.90
10828;DHT22;5467;59.334;13.512;2023-04-15T04:31:10;4.20;99.90
10828;DHT22;5467;59.334;13.512;2023-04-15T04:33:38;4.20;99.90
10828;DHT22;5467;59.334;13.512;2023-04-15T04:36:07;4.20;99.90
10828;DHT22;5467;59.334;13.512;2023-04-15T04:38:34;4.20;99.90
10828;DHT22;5467;59.334;13.512;2023-04-15T04:41:01;4.30;99.90
10828;DHT22;5467;59.334;13.512;2023-04-15T04:43:28;4.20;99.90
10828;DHT22;5467;59.334;13.512;2023-04-15T04:45:56;4.20;99.90
10828;DHT22;5467;59.334;13.512;2023-04-15T04:48:23;4.20;99.90
10828;DHT22;5467;59.334;13.512;2023-04-15T04:50:50;4.20;99.90
10828;DHT22;5467;59.334;13.512;2023-04-15T04:53:19;4.30;99.90
10828;DHT22;5467;59.334;13.512;2023-04-15T04:55:46;4.20;99.90
10828;DHT22;5467;59.334;13.512;2023-04-15T04:58:15;4.20;99.90
10828;DHT22;5467;59.334;13.512;2023-04-15T05:00:42;4.30;99.90
10828;DHT22;5467;59.334;13.512;2023-04-15T05:03:09;4.30;99.90
10828;DHT22;5467;59.334;13.512;2023-04-15T05:05:36;4.30;99.90
10828;DHT22;5467;59.334;13.512;2023-04-15T05:08:06;4.30;99.90
10828;DHT22;5467;59.334;13.512;2023-04-15T05:10:35;4.40;99.90
10828;DHT22;5467;59.334;13.512;2023-04-15T05:13:02;4.50;99.90
10828;DHT22;5467;59.334;13.512;2023-04-15T05:15:30;4.50;99.90
10828;DHT22;5467;59.334;13.512;2023-04-15T05:17:57;4.30;99.90
10828;DHT22;5467;59.334;13.512;2023-04-15T05:20:24;4.30;99.90
10828;DHT22;5467;59.334;13.512;2023-04-15T05:22:51;4.20;99.90
10828;DHT22;5467;59.334;13.512;2023-04-15T05:25:19;4.20;99.90
10828;DHT22;5467;59.334;13.512;2023-04-15T05:27:50;4.20;99.90
10828;DHT22;5467;59.334;13.512;2023-04-15T05:30:20;4.20;99.90
10828;DHT22;5467;59.334;13.512;2023-04-15T05:32:48;4.20;99.90
10828;DHT22;5467;59.334;13.512;2023-04-15T05:35:15;4.30;99.90
10828;DHT22;5467;59.334;13.512;2023-04-15T05:37:43;4.30;99.90
10828;DHT22;5467;59.334;13.512;2023-04-15T05:40:11;4.20;99.90
10828;DHT22;5467;59.334;13.512;2023-04-15T05:42:39;4.20;99.90
10828;DHT22;5467;59.334;13.512;2023-04-15T05:45:08;4.30;99.90
10828;DHT22;5467;59.334;13.512;2023-04-15T05:47:36;4.20;99.90
10828;DHT22;5467;59.334;13.512;2023-04-15T05:50:07;4.30;99.90
10828;DHT22;5467;59.334;13.512;2023-04-15T05:52:34;4.30;99.90
10828;DHT22;5467;59.334;13.512;2023-04-15T05:55:01;4.30;99.90
10828;DHT22;5467;59.334;13.512;2023-04-15T05:57:29;4.40;99.90
10828;DHT22;5467;59.334;13.512;2023-04-15T05:59:56;4.40;99.90
10828;DHT22;5467;59.334;13.512;2023-04-15T06:02:25;4.40;99.90
10828;DHT22;5467;59.334;13.512;2023-04-15T06:04:52;4.40;99.90
10828;DHT22;5467;59.334;13.512;2023-04-15T06:07:19;4.40;99.90
10828;DHT22;5467;59.334;13.512;2023-04-15T06:09:47;4.40;99.90
10828;DHT22;5467;59.334;13.512;2023-04-15T06:12:14;4.40;99.90
10828;DHT22;5467;59.334;13.512;2023-04-15T06:14:41;4.50;99.90
10828;DHT22;5467;59.334;13.512;2023-04-15T06:17:09;4.40;99.90
10828;DHT22;5467;59.334;13.512;2023-04-15T06:19:38;4.40;99.90
10828;DHT22;5467;59.334;13.512;2023-04-15T06:22:05;4.40;99.90
10828;DHT22;5467;59.334;13.512;2023-04-15T06:24:33;4.50;99.90
10828;DHT22;5467;59.334;13.512;2023-04-15T06:27:01;4.50;99.90
10828;DHT22;5467;59.334;13.512;2023-04-15T06:29:29;4.60;99.90
10828;DHT22;5467;59.334;13.512;2023-04-15T06:31:56;4.70;99.90
10828;DHT22;5467;59.334;13.512;2023-04-15T06:34:23;4.70;99.90
10828;DHT22;5467;59.334;13.512;2023-04-15T06:36:52;4.60;99.90
10828;DHT22;5467;59.334;13.512;2023-04-15T06:39:20;4.60;99.90
10828;DHT22;5467;59.334;13.512;2023-04-15T06:41:47;4.50;99.90
10828;DHT22;5467;59.334;13.512;2023-04-15T06:44:15;4.50;99.90
10828;DHT22;5467;59.334;13.512;2023-04-15T06:46:42;4.40;99.90
10828;DHT22;5467;59.334;13.512;2023-04-15T06:49:09;4.40;99.90
10828;DHT22;5467;59.334;13.512;2023-04-15T06:51:37;4.40;99.90
10828;DHT22;5467;59.334;13.512;2023-04-15T06:54:06;4.40;99.90
10828;DHT22;5467;59.334;13.512;2023-04-15T06:56:33;4.40;99.90
10828;DHT22;5467;59.334;13.512;2023-04-15T06:59:00;4.40;99.90
10828;DHT22;5467;59.334;13.512;2023-04-15T07:01:28;4.40;99.90
10828;DHT22;5467;59.334;13.512;2023-04-15T07:03:55;4.50;99.90
10828;DHT22;5467;59.334;13.512;2023-04-15T07:06:23;4.50;99.90
10828;DHT22;5467;59.334;13.512;2023-04-15T07:08:50;4.60;99.90
10828;DHT22;5467;59.334;13.512;2023-04-15T07:11:19;4.50;99.90
10828;DHT22;5467;59.334;13.512;2023-04-15T07:13:46;4.50;99.90
10828;DHT22;5467;59.334;13.512;2023-04-15T07:16:14;4.50;99.90
10828;DHT22;5467;59.334;13.512;2023-04-15T07:18:41;4.50;99.90
10828;DHT22;5467;59.334;13.512;2023-04-15T07:21:11;4.50;99.90
10828;DHT22;5467;59.334;13.512;2023-04-15T07:23:38;4.40;99.90
10828;DHT22;5467;59.334;13.512;2023-04-15T07:26:06;4.50;99.90
10828;DHT22;5467;59.334;13.512;2023-04-15T07:28:35;4.50;99.90
10828;DHT22;5467;59.334;13.512;2023-04-15T07:31:03;4.50;99.90
10828;DHT22;5467;59.334;13.512;2023-04-15T07:33:30;4.50;99.90
10828;DHT22;5467;59.334;13.512;2023-04-15T07:35:57;4.50;99.90
10828;DHT22;5467;59.334;13.512;2023-04-15T07:38:25;4.50;99.90
10828;DHT22;5467;59.334;13.512;2023-04-15T07:40:52;4.60;99.90
10828;DHT22;5467;59.334;13.512;2023-04-15T07:43:19;4.60;99.90
10828;DHT22;5467;59.334;13.512;2023-04-15T07:45:48;4.70;99.90
10828;DHT22;5467;59.334;13.512;2023-04-15T07:48:15;4.80;99.90
10828;DHT22;5467;59.334;13.512;2023-04-15T07:50:42;4.70;99.90
10828;DHT22;5467;59.334;13.512;2023-04-15T07:53:09;4.70;99.90
10828;DHT22;5467;59.334;13.512;2023-04-15T07:55:36;4.60;99.90
10828;DHT22;5467;59.334;13.512;2023-04-15T07:58:03;4.60;99.90
10828;DHT22;5467;59.334;13.512;2023-04-15T08:00:31;4.70;99.90
10828;DHT22;5467;59.334;13.512;2023-04-15T08:02:59;4.70;99.90
10828;DHT22;5467;59.334;13.512;2023-04-15T08:05:27;4.70;99.90
10828;DHT22;5467;59.334;13.512;2023-04-15T08:07:55;4.80;99.90
10828;DHT22;5467;59.334;13.512;2023-04-15T08:10:23;4.80;99.90
10828;DHT22;5467;59.334;13.512;2023-04-15T08:12:50;4.90;99.90
10828;DHT22;5467;59.334;13.512;2023-04-15T08:15:19;4.80;99.90
10828;DHT22;5467;59.334;13.512;2023-04-15T08:17:46;5.00;99.90
10828;DHT22;5467;59.334;13.512;2023-04-15T08:20:17;5.10;99.90
10828;DHT22;5467;59.334;13.512;2023-04-15T08:22:45;5.10;99.90
10828;DHT22;5467;59.334;13.512;2023-04-15T08:25:16;5.10;99.90
10828;DHT22;5467;59.334;13.512;2023-04-15T08:27:44;5.10;99.90
10828;DHT22;5467;59.334;13.512;2023-04-15T08:30:12;5.20;99.90
10828;DHT22;5467;59.334;13.512;2023-04-15T08:32:42;5.20;99.90
10828;DHT22;5467;59.334;13.512;2023-04-15T08:35:11;5.20;99.90
10828;DHT22;5467;59.334;13.512;2023-04-15T08:37:40;5.10;99.90
10828;DHT22;5467;59.334;13.512;2023-04-15T08:40:09;5.10;99.90
10828;DHT22;5467;59.334;13.512;2023-04-15T08:42:41;5.10;99.90
10828;DHT22;5467;59.334;13.512;2023-04-15T08:45:09;5.20;99.90
10828;DHT22;5467;59.334;13.512;2023-04-15T08:47:37;5.20;99.90
10828;DHT22;5467;59.334;13.512;2023-04-15T08:50:08;5.20;99.90
10828;DHT22;5467;59.334;13.512;2023-04-15T08:52:36;5.20;99.90
10828;DHT22;5467;59.334;13.512;2023-04-15T08:55:07;5.30;99.90
10828;DHT22;5467;59.334;13.512;2023-04-15T08:57:36;5.30;99.90
10828;DHT22;5467;59.334;13.512;2023-04-15T09:00:05;5.40;99.90
10828;DHT22;5467;59.334;13.512;2023-04-15T09:02:34;5.40;99.90
10828;DHT22;5467;59.334;13.512;2023-04-15T09:05:01;5.40;99.90
10828;DHT22;5467;59.334;13.512;2023-04-15T09:07:33;5.30;99.90
10828;DHT22;5467;59.334;13.512;2023-04-15T09:10:01;5.40;99.90
10828;DHT22;5467;59.334;13.512;2023-04-15T09:12:32;5.40;99.90
10828;DHT22;5467;59.334;13.512;2023-04-15T09:15:00;5.40;99.90
10828;DHT22;5467;59.334;13.512;2023-04-15T09:17:27;5.50;99.90
10828;DHT22;5467;59.334;13.512;2023-04-15T09:20:07;5.60;99.90
10828;DHT22;5467;59.334;13.512;2023-04-15T09:22:35;5.60;99.90
10828;DHT22;5467;59.334;13.512;2023-04-15T09:25:04;5.70;99.90
10828;DHT22;5467;59.334;13.512;2023-04-15T09:27:53;5.80;99.90
10828;DHT22;5467;59.334;13.512;2023-04-15T09:30:21;5.80;99.90
10828;DHT22;5467;59.334;13.512;2023-04-15T09:32:49;5.80;99.90
10828;DHT22;5467;59.334;13.512;2023-04-15T09:35:17;5.80;99.90
10828;DHT22;5467;59.334;13.512;2023-04-15T09:37:45;5.90;99.90
10828;DHT22;5467;59.334;13.512;2023-04-15T09:40:12;5.90;99.90
10828;DHT22;5467;59.334;13.512;2023-04-15T09:42:55;6.00;99.90
10828;DHT22;5467;59.334;13.512;2023-04-15T09:45:25;6.00;99.90
10828;DHT22;5467;59.334;13.512;2023-04-15T09:47:53;5.90;99.90
10828;DHT22;5467;59.334;13.512;2023-04-15T09:50:20;6.00;99.90
10828;DHT22;5467;59.334;13.512;2023-04-15T09:52:47;5.90;99.90
10828;DHT22;5467;59.334;13.512;2023-04-15T09:55:16;5.80;99.90
10828;DHT22;5467;59.334;13.512;2023-04-15T09:57:45;5.90;99.90
10828;DHT22;5467;59.334;13.512;2023-04-15T10:00:15;5.90;99.90
10828;DHT22;5467;59.334;13.512;2023-04-15T10:02:42;6.00;99.90
10828;DHT22;5467;59.334;13.512;2023-04-15T10:05:11;6.00;99.90
10828;DHT22;5467;59.334;13.512;2023-04-15T10:07:40;6.00;99.90
10828;DHT22;5467;59.334;13.512;2023-04-15T10:10:08;6.10;99.90
10828;DHT22;5467;59.334;13.512;2023-04-15T10:12:37;6.20;99.90
10828;DHT22;5467;59.334;13.512;2023-04-15T10:15:11;6.20;99.90
10828;DHT22;5467;59.334;13.512;2023-04-15T10:17:43;6.30;99.90
10828;DHT22;5467;59.334;13.512;2023-04-15T10:20:11;6.30;99.90
10828;DHT22;5467;59.334;13.512;2023-04-15T10:22:41;6.50;99.90
10828;DHT22;5467;59.334;13.512;2023-04-15T10:25:09;6.70;99.90
10828;DHT22;5467;59.334;13.512;2023-04-15T10:27:39;6.70;99.90
10828;DHT22;5467;59.334;13.512;2023-04-15T10:30:07;6.70;99.90
10828;DHT22;5467;59.334;13.512;2023-04-15T10:32:36;6.80;99.90
10828;DHT22;5467;59.334;13.512;2023-04-15T10:35:09;6.80;99.90
10828;DHT22;5467;59.334;13.512;2023-04-15T10:37:38;6.90;99.90
10828;DHT22;5467;59.334;13.512;2023-04-15T10:40:23;7.10;99.90
10828;DHT22;5467;59.334;13.512;2023-04-15T10:42:52;7.20;99.90
10828;DHT22;5467;59.334;13.512;2023-04-15T10:45:19;7.20;99.90
10828;DHT22;5467;59.334;13.512;2023-04-15T10:47:51;7.30;99.90
10828;DHT22;5467;59.334;13.512;2023-04-15T10:50:21;7.40;99.90
10828;DHT22;5467;59.334;13.512;2023-04-15T10:52:50;7.50;99.90
10828;DHT22;5467;59.334;13.512;2023-04-15T10:55:19;7.50;99.90
10828;DHT22;5467;59.334;13.512;2023-04-15T10:57:51;7.70;99.90
10828;DHT22;5467;59.334;13.512;2023-04-15T11:00:23;7.80;99.90
10828;DHT22;5467;59.334;13.512;2023-04-15T11:02:53;7.90;99.90
10828;DHT22;5467;59.334;13.512;2023-04-15T11:08:07;7.90;99.90
10828;DHT22;5467;59.334;13.512;2023-04-15T11:10:50;7.90;99.90
10828;DHT22;5467;59.334;13.512;2023-04-15T11:13:31;8.00;99.90
10828;DHT22;5467;59.334;13.512;2023-04-15T11:16:00;8.10;99.90
10828;DHT22;5467;59.334;13.512;2023-04-15T11:18:33;8.30;99.90
10828;DHT22;5467;59.334;13.512;2023-04-15T11:21:04;8.20;99.90
10828;DHT22;5467;59.334;13.512;2023-04-15T11:23:34;8.30;99.90
10828;DHT22;5467;59.334;13.512;2023-04-15T11:26:03;8.40;99.90
10828;DHT22;5467;59.334;13.512;2023-04-15T11:28:34;8.50;99.90
10828;DHT22;5467;59.334;13.512;2023-04-15T11:31:06;8.50;99.90
10828;DHT22;5467;59.334;13.512;2023-04-15T11:33:35;8.60;99.90
10828;DHT22;5467;59.334;13.512;2023-04-15T11:36:04;8.80;99.90
10828;DHT22;5467;59.334;13.512;2023-04-15T11:38:33;8.90;99.90
10828;DHT22;5467;59.334;13.512;2023-04-15T11:41:02;9.10;99.90
10828;DHT22;5467;59.334;13.512;2023-04-15T11:43:31;9.20;99.90
10828;DHT22;5467;59.334;13.512;2023-04-15T11:46:01;9.40;99.90
10828;DHT22;5467;59.334;13.512;2023-04-15T11:48:29;9.70;99.90
10828;DHT22;5467;59.334;13.512;2023-04-15T11:50:57;9.90;99.90
10828;DHT22;5467;59.334;13.512;2023-04-15T11:53:37;10.20;99.90
10828;DHT22;5467;59.334;13.512;2023-04-15T11:56:17;10.30;99.90
10828;DHT22;5467;59.334;13.512;2023-04-15T11:58:46;10.30;99.90
10828;DHT22;5467;59.334;13.512;2023-04-15T12:01:15;10.40;99.90
10828;DHT22;5467;59.334;13.512;2023-04-15T12:03:44;10.50;99.90
10828;DHT22;5467;59.334;13.512;2023-04-15T12:06:14;10.40;99.90
10828;DHT22;5467;59.334;13.512;2023-04-15T12:09:07;10.50;99.90
10828;DHT22;5467;59.334;13.512;2023-04-15T12:11:36;10.70;99.90
10828;DHT22;5467;59.334;13.512;2023-04-15T12:14:11;10.90;99.90
10828;DHT22;5467;59.334;13.512;2023-04-15T12:16:40;11.00;99.90
10828;DHT22;5467;59.334;13.512;2023-04-15T12:19:10;11.30;99.90
10828;DHT22;5467;59.334;13.512;2023-04-15T12:21:39;11.50;99.90
10828;DHT22;5467;59.334;13.512;2023-04-15T12:24:10;11.80;99.90
10828;DHT22;5467;59.334;13.512;2023-04-15T12:26:43;11.90;99.90
10828;DHT22;5467;59.334;13.512;2023-04-15T12:29:11;11.80;99.90
10828;DHT22;5467;59.334;13.512;2023-04-15T12:31:49;11.80;99.90
10828;DHT22;5467;59.334;13.512;2023-04-15T12:34:26;11.90;99.90
10828;DHT22;5467;59.334;13.512;2023-04-15T12:36:54;12.10;99.90
10828;DHT22;5467;59.334;13.512;2023-04-15T12:39:25;12.10;99.90
10828;DHT22;5467;59.334;13.512;2023-04-15T12:41:53;12.20;99.90
10828;DHT22;5467;59.334;13.512;2023-04-15T12:44:22;12.20;99.90
10828;DHT22;5467;59.334;13.512;2023-04-15T12:46:50;12.20;99.90
10828;DHT22;5467;59.334;13.512;2023-04-15T12:49:17;12.50;99.90
10828;DHT22;5467;59.334;13.512;2023-04-15T12:51:46;12.50;99.90
10828;DHT22;5467;59.334;13.512;2023-04-15T12:54:15;12.60;99.90
10828;DHT22;5467;59.334;13.512;2023-04-15T12:56:44;12.50;99.90
10828;DHT22;5467;59.334;13.512;2023-04-15T12:59:12;12.70;99.90
10828;DHT22;5467;59.334;13.512;2023-04-15T13:01:43;12.70;99.90
10828;DHT22;5467;59.334;13.512;2023-04-15T13:04:11;12.80;99.90
10828;DHT22;5467;59.334;13.512;2023-04-15T13:06:38;12.80;99.90
10828;DHT22;5467;59.334;13.512;2023-04-15T13:09:06;12.80;99.90
10828;DHT22;5467;59.334;13.512;2023-04-15T13:11:36;12.70;99.90
10828;DHT22;5467;59.334;13.512;2023-04-15T13:14:06;12.50;99.90
10828;DHT22;5467;59.334;13.512;2023-04-15T13:16:33;12.70;99.90
10828;DHT22;5467;59.334;13.512;2023-04-15T13:19:02;12.90;99.90
10828;DHT22;5467;59.334;13.512;2023-04-15T13:21:30;13.00;99.90
10828;DHT22;5467;59.334;13.512;2023-04-15T13:23:59;13.00;99.90
10828;DHT22;5467;59.334;13.512;2023-04-15T13:26:27;13.00;99.90
10828;DHT22;5467;59.334;13.512;2023-04-15T13:28:54;12.80;99.90
10828;DHT22;5467;59.334;13.512;2023-04-15T13:31:22;12.90;99.90
10828;DHT22;5467;59.334;13.512;2023-04-15T13:33:50;13.00;99.90
10828;DHT22;5467;59.334;13.512;2023-04-15T13:36:17;13.00;99.90
10828;DHT22;5467;59.334;13.512;2023-04-15T13:38:44;12.80;99.90
10828;DHT22;5467;59.334;13.512;2023-04-15T13:41:14;12.90;99.90
10828;DHT22;5467;59.334;13.512;2023-04-15T13:43:41;12.90;99.90
10828;DHT22;5467;59.334;13.512;2023-04-15T13:46:08;13.10;99.90
10828;DHT22;5467;59.334;13.512;2023-04-15T13:48:37;13.10;99.90
10828;DHT22;5467;59.334;13.512;2023-04-15T13:51:04;13.10;99.90
10828;DHT22;5467;59.334;13.512;2023-04-15T13:53:32;13.10;99.90
10828;DHT22;5467;59.334;13.512;2023-04-15T13:56:00;13.00;99.90
10828;DHT22;5467;59.334;13.512;2023-04-15T13:58:28;12.90;99.90
10828;DHT22;5467;59.334;13.512;2023-04-15T14:00:55;12.90;99.90
10828;DHT22;5467;59.334;13.512;2023-04-15T14:03:22;12.80;99.90
10828;DHT22;5467;59.334;13.512;2023-04-15T14:05:53;12.80;99.90
10828;DHT22;5467;59.334;13.512;2023-04-15T14:08:24;12.80;99.90
10828;DHT22;5467;59.334;13.512;2023-04-15T14:10:51;12.90;99.90
10828;DHT22;5467;59.334;13.512;2023-04-15T14:13:21;13.00;99.90
10828;DHT22;5467;59.334;13.512;2023-04-15T14:15:48;13.10;99.90
10828;DHT22;5467;59.334;13.512;2023-04-15T14:18:15;13.10;99.90
10828;DHT22;5467;59.334;13.512;2023-04-15T14:20:43;13.20;99.90
10828;DHT22;5467;59.334;13.512;2023-04-15T14:23:11;13.30;99.90
10828;DHT22;5467;59.334;13.512;2023-04-15T14:25:38;13.30;99.90
10828;DHT22;5467;59.334;13.512;2023-04-15T14:28:06;13.40;99.90
10828;DHT22;5467;59.334;13.512;2023-04-15T14:30:33;13.10;99.90
10828;DHT22;5467;59.334;13.512;2023-04-15T14:33:01;13.10;99.90
10828;DHT22;5467;59.334;13.512;2023-04-15T14:35:28;13.00;99.90
10828;DHT22;5467;59.334;13.512;2023-04-15T14:37:57;12.90;99.90
10828;DHT22;5467;59.334;13.512;2023-04-15T14:40:26;12.90;99.90
10828;DHT22;5467;59.334;13.512;2023-04-15T14:42:53;13.00;99.90
10828;DHT22;5467;59.334;13.512;2023-04-15T14:45:20;13.10;99.90
10828;DHT22;5467;59.334;13.512;2023-04-15T14:47:48;13.20;99.90
10828;DHT22;5467;59.334;13.512;2023-04-15T14:50:15;13.20;99.90
10828;DHT22;5467;59.334;13.512;2023-04-15T14:52:43;13.20;99.90
10828;DHT22;5467;59.334;13.512;2023-04-15T14:55:11;13.10;99.90
10828;DHT22;5467;59.334;13.512;2023-04-15T14:57:41;13.10;99.90
10828;DHT22;5467;59.334;13.512;2023-04-15T15:00:10;13.10;99.90
10828;DHT22;5467;59.334;13.512;2023-04-15T15:02:38;13.10;99.90
10828;DHT22;5467;59.334;13.512;2023-04-15T15:05:08;13.10;99.90
10828;DHT22;5467;59.334;13.512;2023-04-15T15:07:37;13.10;99.90
10828;DHT22;5467;59.334;13.512;2023-04-15T15:10:06;13.00;99.90
10828;DHT22;5467;59.334;13.512;2023-04-15T15:12:33;13.00;99.90
10828;DHT22;5467;59.334;13.512;2023-04-15T15:15:03;12.90;99.90
10828;DHT22;5467;59.334;13.512;2023-04-15T15:17:30;13.00;99.90
10828;DHT22;5467;59.334;13.512;2023-04-15T15:19:58;13.10;99.90
10828;DHT22;5467;59.334;13.512;2023-04-15T15:22:25;13.10;99.90
10828;DHT22;5467;59.334;13.512;2023-04-15T15:24:52;13.00;99.90
10828;DHT22;5467;59.334;13.512;2023-04-15T15:27:20;13.00;99.90
10828;DHT22;5467;59.334;13.512;2023-04-15T15:29:48;12.90;99.90
10828;DHT22;5467;59.334;13.512;2023-04-15T15:32:17;12.90;99.90
10828;DHT22;5467;59.334;13.512;2023-04-15T15:34:44;12.90;99.90
10828;DHT22;5467;59.334;13.512;2023-04-15T15:37:11;12.90;99.90
10828;DHT22;5467;59.334;13.512;2023-04-15T15:39:39;12.80;99.90
10828;DHT22;5467;59.334;13.512;2023-04-15T15:42:07;12.80;99.90
10828;DHT22;5467;59.334;13.512;2023-04-15T15:44:34;12.80;99.90
10828;DHT22;5467;59.334;13.512;2023-04-15T15:47:06;12.80;99.90
10828;DHT22;5467;59.334;13.512;2023-04-15T15:49:38;12.70;99.90
10828;DHT22;5467;59.334;13.512;2023-04-15T15:52:05;12.60;99.90
10828;DHT22;5467;59.334;13.512;2023-04-15T15:54:33;12.60;99.90